createdAt,value
2018-05-13T00:01:55.602Z,17.80
2018-05-13T00:04:21.907Z,17.70
2018-05-13T00:06:51.224Z,17.70
2018-05-13T00:09:18.650Z,17.70
2018-05-13T00:11:44.931Z,17.70
2018-05-13T00:14:11.188Z,17.70
2018-05-13T00:16:37.459Z,17.70
2018-05-13T00:19:03.691Z,17.80
2018-05-13T00:21:29.963Z,17.70
2018-05-13T00:23:56.204Z,17.80
2018-05-13T00:26:22.472Z,17.70
2018-05-13T00:28:51.092Z,17.50
2018-05-13T00:31:17.384Z,17.50
2018-05-13T00:33:43.636Z,17.50
2018-05-13T00:36:10.643Z,17.40
2018-05-13T00:38:36.860Z,17.40
2018-05-13T00:41:03.138Z,17.40
2018-05-13T00:43:29.391Z,17.50
2018-05-13T00:45:59.795Z,17.40
2018-05-13T00:48:26.048Z,17.30
2018-05-13T00:50:52.292Z,17.20
2018-05-13T00:53:18.660Z,17.20
2018-05-13T00:55:44.886Z,17.30
2018-05-13T00:58:11.119Z,17.50
2018-05-13T01:00:38.127Z,17.30
2018-05-13T01:03:05.124Z,17.30
2018-05-13T01:05:31.383Z,17.30
2018-05-13T01:07:57.623Z,17.20
2018-05-13T01:10:23.944Z,17.30
2018-05-13T01:12:50.216Z,17.40
2018-05-13T01:15:16.515Z,17.40
2018-05-13T01:17:42.779Z,17.40
2018-05-13T01:20:09.043Z,17.40
2018-05-13T01:22:35.307Z,17.40
2018-05-13T01:25:01.567Z,17.40
2018-05-13T01:27:27.830Z,17.30
2018-05-13T01:29:54.792Z,17.30
2018-05-13T01:32:21.020Z,17.30
2018-05-13T01:34:48.003Z,17.30
2018-05-13T01:37:14.265Z,17.30
2018-05-13T01:39:40.524Z,17.30
2018-05-13T01:42:07.524Z,17.50
2018-05-13T01:44:33.759Z,17.50
2018-05-13T01:47:00.012Z,17.50
2018-05-13T01:49:26.279Z,17.50
2018-05-13T01:51:53.268Z,17.50
2018-05-13T01:54:19.521Z,17.50
2018-05-13T01:56:46.507Z,17.60
2018-05-13T01:59:12.784Z,17.60
2018-05-13T02:01:39.432Z,17.50
2018-05-13T02:04:05.696Z,17.60
2018-05-13T02:06:31.928Z,17.60
2018-05-13T02:08:58.303Z,17.60
2018-05-13T02:11:25.524Z,17.70
2018-05-13T02:13:51.732Z,17.40
2018-05-13T02:16:17.967Z,17.50
2018-05-13T02:18:44.192Z,17.50
2018-05-13T02:21:10.487Z,17.40
2018-05-13T02:23:36.713Z,17.50
2018-05-13T02:26:02.955Z,17.30
2018-05-13T02:28:29.203Z,17.40
2018-05-13T02:30:56.259Z,17.60
2018-05-13T02:33:22.491Z,17.50
2018-05-13T02:35:48.839Z,17.60
2018-05-13T02:38:15.089Z,17.50
2018-05-13T02:40:41.359Z,17.60
2018-05-13T02:43:07.605Z,17.70
2018-05-13T02:45:33.846Z,17.70
2018-05-13T02:48:00.084Z,17.60
2018-05-13T02:50:26.327Z,17.60
2018-05-13T02:52:52.572Z,17.60
2018-05-13T02:55:18.819Z,17.80
2018-05-13T02:57:45.046Z,17.70
2018-05-13T03:00:12.076Z,17.70
2018-05-13T03:02:38.453Z,17.80
2018-05-13T03:05:05.068Z,17.80
2018-05-13T03:07:32.396Z,17.70
2018-05-13T03:09:59.372Z,17.50
2018-05-13T03:12:25.637Z,17.50
2018-05-13T03:14:51.901Z,17.50
2018-05-13T03:17:18.209Z,17.50
2018-05-13T03:19:44.454Z,17.40
2018-05-13T03:22:10.732Z,17.40
2018-05-13T03:24:36.983Z,17.50
2018-05-13T03:27:03.991Z,17.40
2018-05-13T03:29:30.276Z,17.40
2018-05-13T03:31:56.519Z,17.30
2018-05-13T03:34:22.751Z,17.40
2018-05-13T03:36:49.779Z,17.30
2018-05-13T03:39:16.034Z,17.30
2018-05-13T03:41:42.292Z,17.40
2018-05-13T03:44:08.544Z,17.20
2018-05-13T03:46:34.804Z,17.30
2018-05-13T03:49:01.053Z,17.30
2018-05-13T03:51:28.020Z,17.40
2018-05-13T03:53:54.255Z,17.40
2018-05-13T03:56:21.248Z,17.40
2018-05-13T03:58:47.577Z,17.40
2018-05-13T04:01:13.807Z,17.40
2018-05-13T04:03:42.526Z,17.40
2018-05-13T04:06:08.804Z,17.40
2018-05-13T04:08:49.003Z,17.30
2018-05-13T04:11:27.748Z,17.30
2018-05-13T04:14:06.915Z,17.10
2018-05-13T04:16:33.183Z,17.10
2018-05-13T04:18:59.449Z,17.00
2018-05-13T04:21:27.499Z,16.90
2018-05-13T04:23:53.761Z,16.80
2018-05-13T04:26:20.761Z,16.40
2018-05-13T04:28:47.012Z,16.40
2018-05-13T04:31:13.254Z,16.30
2018-05-13T04:33:39.935Z,16.40
2018-05-13T04:36:06.204Z,16.60
2018-05-13T04:38:33.225Z,16.80
2018-05-13T04:41:00.264Z,16.90
2018-05-13T04:43:26.495Z,16.90
2018-05-13T04:45:52.713Z,17.00
2018-05-13T04:48:23.211Z,17.00
2018-05-13T04:50:49.547Z,17.00
2018-05-13T04:53:15.788Z,17.20
2018-05-13T04:55:42.020Z,17.10
2018-05-13T04:58:08.324Z,17.30
2018-05-13T05:00:35.300Z,17.40
2018-05-13T05:03:02.283Z,17.40
2018-05-13T05:05:28.563Z,17.50
2018-05-13T05:07:54.788Z,17.60
2018-05-13T05:10:21.024Z,17.50
2018-05-13T05:12:47.338Z,17.60
2018-05-13T05:15:13.620Z,17.70
2018-05-13T05:17:40.623Z,17.90
2018-05-13T05:20:06.863Z,17.80
2018-05-13T05:22:33.099Z,18.00
2018-05-13T05:24:59.348Z,18.10
2018-05-13T05:27:25.591Z,18.20
2018-05-13T05:29:51.832Z,18.30
2018-05-13T05:32:18.121Z,18.30
2018-05-13T05:34:44.332Z,18.40
2018-05-13T05:37:10.580Z,18.50
2018-05-13T05:39:36.833Z,18.50
2018-05-13T05:42:03.815Z,18.50
2018-05-13T05:44:30.082Z,18.50
2018-05-13T05:46:56.418Z,18.60
2018-05-13T05:49:23.387Z,18.70
2018-05-13T05:51:49.708Z,18.70
2018-05-13T05:54:15.928Z,18.80
2018-05-13T05:56:42.155Z,18.90
2018-05-13T05:59:08.388Z,19.00
2018-05-13T06:01:34.647Z,19.20
2018-05-13T06:04:00.883Z,19.20
2018-05-13T06:06:27.115Z,19.30
2018-05-13T06:08:56.107Z,19.20
2018-05-13T06:11:22.384Z,19.30
2018-05-13T06:13:48.621Z,19.40
2018-05-13T06:16:15.632Z,19.50
2018-05-13T06:18:41.913Z,19.50
2018-05-13T06:21:08.157Z,19.60
2018-05-13T06:23:34.401Z,19.70
2018-05-13T06:26:00.642Z,19.80
2018-05-13T06:28:26.913Z,19.90
2018-05-13T06:30:53.184Z,19.90
2018-05-13T06:33:19.424Z,20.00
2018-05-13T06:35:45.676Z,20.10
2018-05-13T06:38:12.994Z,20.10
2018-05-13T06:40:39.277Z,20.20
2018-05-13T06:43:05.522Z,20.20
2018-05-13T06:45:32.497Z,20.30
2018-05-13T06:47:58.788Z,20.30
2018-05-13T06:50:25.068Z,20.50
2018-05-13T06:52:51.320Z,20.70
2018-05-13T06:55:17.608Z,20.80
2018-05-13T06:57:44.595Z,20.80
2018-05-13T07:00:10.839Z,20.80
2018-05-13T07:02:37.088Z,20.90
2018-05-13T07:05:03.497Z,20.90
2018-05-13T07:07:30.568Z,21.00
2018-05-13T07:09:57.540Z,21.10
2018-05-13T07:12:23.783Z,21.10
2018-05-13T07:14:50.023Z,21.20
2018-05-13T07:17:16.307Z,21.00
2018-05-13T07:19:42.538Z,21.10
2018-05-13T07:22:08.787Z,21.10
2018-05-13T07:24:35.052Z,21.10
2018-05-13T07:27:01.993Z,21.00
2018-05-13T07:29:28.265Z,21.00
2018-05-13T07:31:55.281Z,20.90
2018-05-13T07:34:21.516Z,20.90
2018-05-13T07:36:47.770Z,21.00
2018-05-13T07:39:14.033Z,21.10
2018-05-13T07:41:40.310Z,21.20
2018-05-13T07:44:06.589Z,21.20
2018-05-13T07:46:34.211Z,21.20
2018-05-13T07:49:00.436Z,21.10
2018-05-13T07:51:27.271Z,21.30
2018-05-13T07:53:53.515Z,21.40
2018-05-13T07:56:19.775Z,21.60
2018-05-13T07:58:46.034Z,21.70
2018-05-13T08:01:12.271Z,21.70
2018-05-13T08:03:41.641Z,21.80
2018-05-13T08:06:09.259Z,21.70
2018-05-13T08:08:35.485Z,21.80
2018-05-13T08:11:01.735Z,21.80
2018-05-13T08:13:28.113Z,21.80
2018-05-13T08:15:55.108Z,21.80
2018-05-13T08:18:21.354Z,21.80
2018-05-13T08:20:49.527Z,21.80
2018-05-13T08:23:15.772Z,22.00
2018-05-13T08:25:42.015Z,22.20
2018-05-13T08:28:08.255Z,22.30
2018-05-13T08:30:34.494Z,22.30
2018-05-13T08:33:01.480Z,22.40
2018-05-13T08:35:27.741Z,22.40
2018-05-13T08:37:55.689Z,22.30
2018-05-13T08:40:24.987Z,22.20
2018-05-13T08:42:51.262Z,22.20
2018-05-13T08:45:17.652Z,22.30
2018-05-13T08:47:43.898Z,22.30
2018-05-13T08:50:10.892Z,22.40
2018-05-13T08:52:37.156Z,22.40
2018-05-13T08:55:03.424Z,22.50
2018-05-13T08:57:30.986Z,22.30
2018-05-13T08:59:57.225Z,22.40
2018-05-13T09:02:23.448Z,22.60
2018-05-13T09:04:49.885Z,22.70
2018-05-13T09:07:16.849Z,22.90
2018-05-13T09:09:43.123Z,22.90
2018-05-13T09:12:10.148Z,23.00
2018-05-13T09:14:36.387Z,23.00
2018-05-13T09:17:06.411Z,23.10
2018-05-13T09:19:32.661Z,23.10
2018-05-13T09:21:58.893Z,23.10
2018-05-13T09:24:25.128Z,23.20
2018-05-13T09:26:51.419Z,23.10
2018-05-13T09:29:18.445Z,23.10
2018-05-13T09:31:45.528Z,23.00
2018-05-13T09:34:16.606Z,23.00
2018-05-13T09:36:43.708Z,22.80
2018-05-13T09:39:09.967Z,22.80
2018-05-13T09:41:36.210Z,22.70
2018-05-13T09:44:02.512Z,22.50
2018-05-13T09:46:29.520Z,22.20
2018-05-13T09:48:55.754Z,22.20
2018-05-13T09:51:25.720Z,22.40
2018-05-13T09:53:52.696Z,22.70
2018-05-13T09:56:18.947Z,22.60
2018-05-13T09:58:45.184Z,22.70
2018-05-13T10:01:11.436Z,22.80
2018-05-13T10:03:38.443Z,22.80
2018-05-13T10:06:04.671Z,22.80
2018-05-13T10:08:34.937Z,23.10
2018-05-13T10:11:01.175Z,23.10
2018-05-13T10:13:27.339Z,23.30
2018-05-13T10:15:53.592Z,23.50
2018-05-13T10:18:19.807Z,23.40
2018-05-13T10:20:46.044Z,23.80
2018-05-13T10:23:12.278Z,23.80
2018-05-13T10:25:38.551Z,23.80
2018-05-13T10:28:04.800Z,23.60
2018-05-13T10:30:32.462Z,23.40
2018-05-13T10:32:58.840Z,23.00
2018-05-13T10:35:25.835Z,22.40
2018-05-13T10:37:52.813Z,22.20
2018-05-13T10:40:19.058Z,22.20
2018-05-13T10:42:45.308Z,22.20
2018-05-13T10:45:11.598Z,22.20
2018-05-13T10:47:38.607Z,22.00
2018-05-13T10:50:08.764Z,22.00
2018-05-13T10:52:35.020Z,21.80
2018-05-13T10:55:01.361Z,21.50
2018-05-13T10:57:27.623Z,21.20
2018-05-13T10:59:53.880Z,21.20
2018-05-13T11:02:20.883Z,20.90
2018-05-13T11:04:47.331Z,20.80
2018-05-13T11:07:17.928Z,20.90
2018-05-13T11:09:44.934Z,20.80
2018-05-13T11:12:11.176Z,20.80
2018-05-13T11:14:38.160Z,20.60
2018-05-13T11:17:04.435Z,20.60
2018-05-13T11:19:30.735Z,20.50
2018-05-13T11:21:57.015Z,20.50
2018-05-13T11:24:23.285Z,20.70
2018-05-13T11:26:50.282Z,20.30
2018-05-13T11:29:16.582Z,20.30
2018-05-13T11:31:43.569Z,20.30
2018-05-13T11:34:09.820Z,20.30
2018-05-13T11:36:36.080Z,20.00
2018-05-13T11:39:02.381Z,19.70
2018-05-13T11:41:28.617Z,19.60
2018-05-13T11:43:54.915Z,19.40
2018-05-13T11:46:21.212Z,19.10
2018-05-13T11:48:47.487Z,19.00
2018-05-13T11:51:13.732Z,18.90
2018-05-13T11:53:39.959Z,18.70
2018-05-13T11:56:06.197Z,18.60
2018-05-13T11:58:32.450Z,18.60
2018-05-13T12:00:58.736Z,18.50
2018-05-13T12:03:24.999Z,18.50
2018-05-13T12:05:51.278Z,18.40
2018-05-13T12:08:17.550Z,18.30
2018-05-13T12:10:43.795Z,18.20
2018-05-13T12:13:10.133Z,18.10
2018-05-13T12:15:37.211Z,18.10
2018-05-13T12:18:04.215Z,17.70
2018-05-13T12:20:35.175Z,17.70
2018-05-13T12:23:01.423Z,17.50
2018-05-13T12:25:27.688Z,17.40
2018-05-13T12:27:56.897Z,17.20
2018-05-13T12:30:23.135Z,17.10
2018-05-13T12:32:49.518Z,16.90
2018-05-13T12:35:15.760Z,16.80
2018-05-13T12:37:42.735Z,16.30
2018-05-13T12:40:09.008Z,16.20
2018-05-13T12:42:35.300Z,16.20
2018-05-13T12:45:02.989Z,16.20
2018-05-13T12:47:29.340Z,16.00
2018-05-13T12:49:55.620Z,15.70
2018-05-13T12:52:21.860Z,15.70
2018-05-13T12:54:48.120Z,15.60
2018-05-13T12:57:14.377Z,15.60
2018-05-13T12:59:41.416Z,15.70
2018-05-13T13:02:07.708Z,15.70
2018-05-13T13:04:33.986Z,15.80
2018-05-13T13:07:00.245Z,15.80
2018-05-13T13:09:26.556Z,15.80
2018-05-13T13:11:52.775Z,15.80
2018-05-13T13:14:19.056Z,15.80
2018-05-13T13:16:45.350Z,15.80
2018-05-13T13:19:12.336Z,15.90
2018-05-13T13:21:38.740Z,15.80
2018-05-13T13:24:05.275Z,15.90
2018-05-13T13:26:31.520Z,15.90
2018-05-13T13:28:57.788Z,15.80
2018-05-13T13:31:24.079Z,15.70
2018-05-13T13:33:51.096Z,15.80
2018-05-13T13:36:17.411Z,15.90
2018-05-13T13:38:43.673Z,15.80
2018-05-13T13:41:09.954Z,15.70
2018-05-13T13:43:37.013Z,15.70
2018-05-13T13:46:04.080Z,15.80
2018-05-13T13:48:30.365Z,15.70
2018-05-13T13:50:56.646Z,15.70
2018-05-13T13:53:22.937Z,15.80
2018-05-13T13:55:50.159Z,15.90
2018-05-13T13:58:16.425Z,15.80
2018-05-13T14:00:42.678Z,15.90
2018-05-13T14:03:09.700Z,15.80
2018-05-13T14:05:35.967Z,15.80
2018-05-13T14:08:02.983Z,16.00
2018-05-13T14:10:29.550Z,16.00
2018-05-13T14:12:56.048Z,15.90
2018-05-13T14:15:22.215Z,16.20
2018-05-13T14:17:48.740Z,16.10
2018-05-13T14:20:15.114Z,15.90
2018-05-13T14:22:41.247Z,16.00
2018-05-13T14:25:07.514Z,15.90
2018-05-13T14:27:33.826Z,15.90
2018-05-13T14:30:00.139Z,16.00
2018-05-13T14:32:26.436Z,16.10
2018-05-13T14:34:53.171Z,16.10
2018-05-13T14:37:19.486Z,16.20
2018-05-13T14:39:45.827Z,16.20
2018-05-13T14:42:13.328Z,16.30
2018-05-13T14:44:39.579Z,16.20
2018-05-13T14:47:05.908Z,16.20
2018-05-13T14:49:32.175Z,16.30
2018-05-13T14:51:58.460Z,16.20
2018-05-13T14:54:24.732Z,16.40
2018-05-13T14:56:51.027Z,16.30
2018-05-13T14:59:23.239Z,16.30
2018-05-13T15:01:49.499Z,16.30
2018-05-13T15:04:16.616Z,16.30
2018-05-13T15:06:42.951Z,16.30
2018-05-13T15:09:09.249Z,16.20
2018-05-13T15:11:36.196Z,16.10
2018-05-13T15:14:02.476Z,16.10
2018-05-13T15:16:32.859Z,16.20
2018-05-13T15:18:59.039Z,16.20
2018-05-13T15:21:25.264Z,16.30
2018-05-13T15:23:51.523Z,16.40
2018-05-13T15:26:17.779Z,16.40
2018-05-13T15:28:44.084Z,16.40
2018-05-13T15:31:11.216Z,16.50
2018-05-13T15:33:40.957Z,16.50
2018-05-13T15:36:08.657Z,16.60
2018-05-13T15:38:35.760Z,16.50
2018-05-13T15:41:02.053Z,16.50
2018-05-13T15:43:28.348Z,16.50
2018-05-13T15:45:54.621Z,16.60
2018-05-13T15:48:20.950Z,16.60
2018-05-13T15:50:47.309Z,16.70
2018-05-13T15:53:15.164Z,16.70
2018-05-13T15:55:41.387Z,16.60
2018-05-13T15:58:07.859Z,16.50
2018-05-13T16:00:34.200Z,16.50
2018-05-13T16:03:00.555Z,16.60
2018-05-13T16:05:26.789Z,16.70
2018-05-13T16:07:53.068Z,16.70
2018-05-13T16:10:21.256Z,16.70
2018-05-13T16:12:47.695Z,16.60
2018-05-13T16:15:14.696Z,16.70
2018-05-13T16:17:41.021Z,16.70
2018-05-13T16:20:07.200Z,16.80
2018-05-13T16:22:33.532Z,16.80
2018-05-13T16:24:59.786Z,16.80
2018-05-13T16:27:26.083Z,16.90
2018-05-13T16:29:52.351Z,16.90
2018-05-13T16:32:18.642Z,16.80
2018-05-13T16:34:50.043Z,16.70
2018-05-13T16:37:17.056Z,16.80
2018-05-13T16:39:43.397Z,16.80
2018-05-13T16:42:09.648Z,16.90
2018-05-13T16:44:35.890Z,16.90
2018-05-13T16:47:02.156Z,16.90
2018-05-13T16:49:29.127Z,16.70
2018-05-13T16:51:55.409Z,16.70
2018-05-13T16:54:21.742Z,16.50
2018-05-13T16:56:48.009Z,16.60
2018-05-13T16:59:14.270Z,16.50
2018-05-13T17:01:40.524Z,16.50
2018-05-13T17:04:06.797Z,16.40
2018-05-13T17:06:33.105Z,16.50
2018-05-13T17:08:59.428Z,16.50
2018-05-13T17:11:25.676Z,16.50
2018-05-13T17:13:52.691Z,16.70
2018-05-13T17:16:18.932Z,16.70
2018-05-13T17:18:45.579Z,16.90
2018-05-13T17:21:11.821Z,16.90
2018-05-13T17:23:38.145Z,16.90
2018-05-13T17:26:04.349Z,16.90
2018-05-13T17:28:30.720Z,17.00
2018-05-13T17:30:57.387Z,17.00
2018-05-13T17:33:23.764Z,16.90
2018-05-13T17:35:50.188Z,16.90
2018-05-13T17:38:17.031Z,16.90
2018-05-13T17:40:43.252Z,17.00
2018-05-13T17:43:12.744Z,17.00
2018-05-13T17:45:38.992Z,17.00
2018-05-13T17:48:06.008Z,17.10
2018-05-13T17:50:32.286Z,17.10
2018-05-13T17:52:59.327Z,17.10
2018-05-13T17:55:25.572Z,17.10
2018-05-13T17:57:51.825Z,17.00
2018-05-13T18:00:18.095Z,17.00
2018-05-13T18:02:44.426Z,16.90
2018-05-13T18:05:11.392Z,16.70
2018-05-13T18:07:37.679Z,16.70
2018-05-13T18:10:03.992Z,16.80
2018-05-13T18:12:30.622Z,16.80
2018-05-13T18:14:56.896Z,16.80
2018-05-13T18:17:23.136Z,16.80
2018-05-13T18:19:49.607Z,16.80
2018-05-13T18:22:15.920Z,16.80
2018-05-13T18:24:42.924Z,16.80
2018-05-13T18:27:09.191Z,16.80
2018-05-13T18:29:35.457Z,16.80
2018-05-13T18:32:01.707Z,16.80
2018-05-13T18:34:27.944Z,16.80
2018-05-13T18:36:54.203Z,16.70
2018-05-13T18:39:20.569Z,16.60
2018-05-13T18:41:46.734Z,16.70
2018-05-13T18:44:14.641Z,16.70
2018-05-13T18:46:40.959Z,16.70
2018-05-13T18:49:07.266Z,16.60
2018-05-13T18:51:33.499Z,16.80
2018-05-13T18:53:59.753Z,16.70
2018-05-13T18:56:26.021Z,16.60
2018-05-13T18:58:53.088Z,16.50
2018-05-13T19:01:19.331Z,16.50
2018-05-13T19:03:45.590Z,16.50
2018-05-13T19:06:11.971Z,16.60
2018-05-13T19:08:38.276Z,16.50
2018-05-13T19:11:05.266Z,16.40
2018-05-13T19:13:31.619Z,16.40
2018-05-13T19:15:57.869Z,16.30
2018-05-13T19:18:24.159Z,16.30
2018-05-13T19:20:50.472Z,16.20
2018-05-13T19:23:16.776Z,16.20
2018-05-13T19:25:43.070Z,16.10
2018-05-13T19:28:10.065Z,16.00
2018-05-13T19:30:36.328Z,16.00
2018-05-13T19:33:02.650Z,16.00
2018-05-13T19:35:28.920Z,16.00
2018-05-13T19:37:55.172Z,15.90
2018-05-13T19:40:21.894Z,15.80
2018-05-13T19:42:48.185Z,15.90
2018-05-13T19:45:14.408Z,15.90
2018-05-13T19:47:40.648Z,15.80
2018-05-13T19:50:06.891Z,15.80
2018-05-13T19:52:33.891Z,15.60
2018-05-13T19:55:00.145Z,15.60
2018-05-13T19:57:26.443Z,15.50
2018-05-13T19:59:53.432Z,15.70
2018-05-13T20:02:19.695Z,15.60
2018-05-13T20:04:45.944Z,15.60
2018-05-13T20:07:15.011Z,15.70
2018-05-13T20:09:41.404Z,15.80
2018-05-13T20:12:07.649Z,15.80
2018-05-13T20:14:33.959Z,15.70
2018-05-13T20:17:00.207Z,15.80
2018-05-13T20:19:27.196Z,15.80
2018-05-13T20:21:53.509Z,15.80
2018-05-13T20:24:19.755Z,15.80
2018-05-13T20:26:46.005Z,15.80
2018-05-13T20:29:13.001Z,15.80
2018-05-13T20:31:39.325Z,15.80
2018-05-13T20:34:05.699Z,15.80
2018-05-13T20:36:32.684Z,15.90
2018-05-13T20:38:58.948Z,15.90
2018-05-13T20:41:25.008Z,15.90
2018-05-13T20:43:51.084Z,15.90
2018-05-13T20:46:17.135Z,16.00
2018-05-13T20:48:43.179Z,16.00
2018-05-13T20:51:09.317Z,16.10
2018-05-13T20:53:35.296Z,16.10
2018-05-13T20:56:02.081Z,16.00
2018-05-13T20:58:28.169Z,16.00
2018-05-13T21:00:54.232Z,16.00
2018-05-13T21:03:20.304Z,16.00
2018-05-13T21:05:46.368Z,16.00
2018-05-13T21:08:13.928Z,15.70
2018-05-13T21:10:39.999Z,15.70
2018-05-13T21:13:06.840Z,15.60
2018-05-13T21:15:32.895Z,15.70
2018-05-13T21:17:59.717Z,15.50
2018-05-13T21:20:25.799Z,15.50
2018-05-13T21:22:51.936Z,15.60
2018-05-13T21:25:17.996Z,15.40
2018-05-13T21:27:44.059Z,15.40
2018-05-13T21:30:10.199Z,15.40
2018-05-13T21:32:36.180Z,15.40
2018-05-13T21:35:03.037Z,15.30
2018-05-13T21:37:29.092Z,15.30
2018-05-13T21:39:55.724Z,15.30
2018-05-13T21:42:22.528Z,15.40
2018-05-13T21:44:48.589Z,15.40
2018-05-13T21:47:14.654Z,15.40
2018-05-13T21:49:41.453Z,15.50
2018-05-13T21:52:07.551Z,15.50
2018-05-13T21:54:33.648Z,15.50
2018-05-13T21:56:59.691Z,15.50
2018-05-13T21:59:25.758Z,15.50
2018-05-13T22:01:52.557Z,15.50
2018-05-13T22:04:18.639Z,15.50
2018-05-13T22:06:45.511Z,15.50
2018-05-13T22:09:11.584Z,15.50
2018-05-13T22:11:37.756Z,15.50
2018-05-13T22:14:03.813Z,15.60
2018-05-13T22:16:29.879Z,15.60
2018-05-13T22:18:55.951Z,15.70
2018-05-13T22:21:22.019Z,15.70
2018-05-13T22:23:48.112Z,15.70
2018-05-13T22:26:16.320Z,15.70
2018-05-13T22:28:42.389Z,15.70
2018-05-13T22:31:09.172Z,15.70
2018-05-13T22:33:35.280Z,15.70
2018-05-13T22:36:02.111Z,15.70
2018-05-13T22:38:29.738Z,15.70
2018-05-13T22:40:55.794Z,15.70
2018-05-13T22:43:21.958Z,15.70
2018-05-13T22:45:48.052Z,15.80
2018-05-13T22:48:14.929Z,15.70
2018-05-13T22:50:41.016Z,15.70
2018-05-13T22:53:07.112Z,15.70
2018-05-13T22:55:33.179Z,15.70
2018-05-13T22:57:59.964Z,15.50
2018-05-13T23:00:26.030Z,15.60
2018-05-13T23:02:52.063Z,15.60
2018-05-13T23:05:18.215Z,15.60
2018-05-13T23:07:44.195Z,15.60
2018-05-13T23:10:10.239Z,15.50
2018-05-13T23:12:36.313Z,15.60
2018-05-13T23:15:02.400Z,15.70
2018-05-13T23:17:28.544Z,15.60
2018-05-13T23:19:54.647Z,15.60
2018-05-13T23:22:32.936Z,15.50
2018-05-13T23:24:59.031Z,15.50
2018-05-13T23:27:25.919Z,15.60
2018-05-13T23:29:52.073Z,15.60
2018-05-13T23:32:18.183Z,15.60
2018-05-13T23:34:44.339Z,15.60
2018-05-13T23:37:10.392Z,15.60
2018-05-13T23:39:36.475Z,15.60
2018-05-13T23:42:02.604Z,15.70
2018-05-13T23:44:28.675Z,15.60
2018-05-13T23:46:55.523Z,15.50
2018-05-13T23:49:21.572Z,15.40
2018-05-13T23:51:47.645Z,15.40
2018-05-13T23:54:13.708Z,15.40
2018-05-13T23:56:40.524Z,15.40
2018-05-13T23:59:06.574Z,15.40
